Photometre #546[NE_1.6] Izana AOT

File : 20190923_546.hum

23/09/2019,07:35:53,TEMP=11.0,BA=5.60,STAT.A=Abs.,ExtBa=13.70
23/09/2019,07:38:47,TEMP=11.4,BA=5.60,STAT.A=Abs.,ExtBa=13.60
23/09/2019,07:42:11,TEMP=11.6,BA=5.60,STAT.A=Abs.,ExtBa=13.60
23/09/2019,07:46:12,TEMP=11.7,BA=5.60,STAT.A=Abs.,ExtBa=13.50
23/09/2019,07:51:03,TEMP=11.9,BA=5.60,STAT.A=Abs.,ExtBa=13.50
23/09/2019,07:57:00,TEMP=12.3,BA=5.60,STAT.A=Abs.,ExtBa=13.60
23/09/2019,08:04:30,TEMP=12.7,BA=5.60,STAT.B=Abs.,ExtBa=13.60
23/09/2019,08:15:00,TEMP=14.0,BA=5.56,STAT.A=Abs.,ExtBa=12.80
23/09/2019,08:17:07,TEMP=14.2,BA=5.56,STAT.A=Abs.,ExtBa=12.80
23/09/2019,08:19:07,TEMP=14.3,BA=5.56,STAT.A=Abs.,ExtBa=12.90
23/09/2019,08:21:40,TEMP=14.3,BA=5.56,STAT.A=Abs.,ExtBa=12.90
23/09/2019,08:27:30,TEMP=14.3,BA=5.56,STAT.C=Abs.,ExtBa=13.10
23/09/2019,08:44:12,TEMP=15.6,BA=5.56,STAT.A=Abs.,ExtBa=12.80
23/09/2019,08:46:16,TEMP=15.9,BA=5.56,STAT.A=Abs.,ExtBa=12.90
23/09/2019,08:51:27,TEMP=15.9,BA=5.60,STAT.A=Abs.,ExtBa=13.10
23/09/2019,09:02:47,TEMP=17.0,BA=5.60,STAT.A=Abs.,ExtBa=13.30
23/09/2019,09:16:51,TEMP=18.7,BA=5.60,STAT.B=Abs.,ExtBa=13.40
23/09/2019,09:46:02,TEMP=19.1,BA=5.60,STAT.B=Abs.,ExtBa=13.40
23/09/2019,09:59:10,TEMP=18.6,BA=5.56,STAT.F,ExtBa=13.00
23/09/2019,10:16:14,TEMP=19.1,BA=5.56,STAT.D=Abs.,ExtBa=12.80
23/09/2019,10:29:09,TEMP=19.7,BA=5.60,STAT.D=Abs.,ExtBa=13.30
23/09/2019,10:44:09,TEMP=21.7,BA=5.60,STAT.D=Abs.,ExtBa=13.40
23/09/2019,10:59:11,TEMP=21.4,BA=5.60,STAT.F,ExtBa=13.40
23/09/2019,11:14:09,TEMP=20.9,BA=5.60,STAT.D=Abs.,ExtBa=13.30
23/09/2019,11:29:09,TEMP=20.8,BA=5.60,STAT.D=Abs.,ExtBa=13.40
23/09/2019,11:44:10,TEMP=21.7,BA=5.60,STAT.D=Abs.,ExtBa=13.40
23/09/2019,11:59:11,TEMP=23.3,BA=5.60,STAT.F,ExtBa=13.50
23/09/2019,12:14:10,TEMP=24.0,BA=5.60,STAT.D=Abs.,ExtBa=13.30
23/09/2019,12:29:10,TEMP=24.8,BA=5.60,STAT.D=Abs.,ExtBa=13.40
23/09/2019,12:44:10,TEMP=25.0,BA=5.60,STAT.D=Abs.,ExtBa=13.40
23/09/2019,12:59:12,TEMP=24.3,BA=5.60,STAT.F,ExtBa=13.50
23/09/2019,13:14:10,TEMP=23.7,BA=5.60,STAT.D=Abs.,ExtBa=13.30
23/09/2019,13:29:10,TEMP=24.1,BA=5.56,STAT.D=Abs.,ExtBa=13.40
23/09/2019,13:44:10,TEMP=24.3,BA=5.60,STAT.D=Abs.,ExtBa=13.50
23/09/2019,13:59:11,TEMP=23.5,BA=5.60,STAT.F,ExtBa=13.50
23/09/2019,14:14:08,TEMP=22.9,BA=5.60,STAT.D=Abs.,ExtBa=13.30
23/09/2019,14:29:08,TEMP=24.1,BA=5.60,STAT.D=Abs.,ExtBa=13.50
23/09/2019,14:44:08,TEMP=24.6,BA=5.60,STAT.D=Abs.,ExtBa=13.50
23/09/2019,14:59:11,TEMP=24.6,BA=5.60,STAT.F,ExtBa=13.50
23/09/2019,15:15:23,TEMP=24.4,BA=5.56,STAT.D=Abs.,ExtBa=12.90
23/09/2019,15:29:08,TEMP=23.7,BA=5.56,STAT.D=Abs.,ExtBa=13.30
23/09/2019,15:44:10,TEMP=22.2,BA=5.56,STAT.D=Abs.,ExtBa=13.40
23/09/2019,15:59:10,TEMP=22.0,BA=5.56,STAT.F,ExtBa=13.40
23/09/2019,16:15:31,TEMP=22.0,BA=5.48,STAT.B=Abs.,ExtBa=12.90
23/09/2019,16:41:29,TEMP=21.4,BA=5.56,STAT.B=Abs.,ExtBa=13.20
23/09/2019,16:55:33,TEMP=21.1,BA=5.48,STAT.A=Abs.,ExtBa=13.00
23/09/2019,17:06:53,TEMP=21.0,BA=5.56,STAT.A=Abs.,ExtBa=13.20
23/09/2019,17:16:14,TEMP=20.1,BA=5.56,STAT.A=Abs.,ExtBa=13.20
23/09/2019,17:24:06,TEMP=19.3,BA=5.56,STAT.A=Abs.,ExtBa=13.30
23/09/2019,17:30:50,TEMP=18.7,BA=5.56,STAT.C=Abs.,ExtBa=13.20
23/09/2019,17:47:39,TEMP=17.8,BA=5.48,STAT.A=Abs.,ExtBa=12.80
23/09/2019,17:49:39,TEMP=17.7,BA=5.48,STAT.A=Abs.,ExtBa=12.80
23/09/2019,17:51:42,TEMP=17.6,BA=5.48,STAT.A=Abs.,ExtBa=12.80
23/09/2019,17:53:42,TEMP=17.5,BA=5.48,STAT.A=Abs.,ExtBa=12.80
23/09/2019,17:55:41,TEMP=17.4,BA=5.48,STAT.B=Abs.,ExtBa=12.90
23/09/2019,18:06:17,TEMP=17.2,BA=5.48,STAT.A=Abs.,ExtBa=12.80
23/09/2019,18:08:27,TEMP=17.2,BA=5.48,STAT.A=Abs.,ExtBa=12.80
23/09/2019,18:12:06,TEMP=16.7,BA=5.48,STAT.A=Abs.,ExtBa=12.90
23/09/2019,18:16:07,TEMP=16.4,BA=5.48,STAT.A=Abs.,ExtBa=12.90
23/09/2019,18:19:31,TEMP=16.2,BA=5.48,STAT.A=Abs.,ExtBa=13.00
23/09/2019,18:22:25,TEMP=16.2,BA=5.52,STAT.A=Abs.,ExtBa=12.90